Terminal Aerodrome Forecast
Issued by NWS

Home | Current Version | Previous Version | Text Only | Print | Product List | Glossary Off
Versions: 1 2 3 4 5 6 7 8 9 10 11 12 13 14 15 16 17 18 19

000
FTUS42 KMHX 152335
TAFISO
TAF
KISO 152335Z 1600/1624 21010KT P6SM SCT150
     FM161000 23011KT P6SM SCT020 BKN040
     FM161500 24016G26KT P6SM SCT025 BKN040
     FM162000 27015G23KT 6SM -RA OVC030
      AMD LTD TO CLD VIS AND WIND=

USA.gov is the U.S. government's official web portal to all federal, state and local government web resources and services.